createdAt,value
2023-03-19T00:00:17.938Z,21.20
2023-03-19T00:03:10.919Z,21.20
2023-03-19T00:06:03.862Z,21.20
2023-03-19T00:08:56.925Z,21.20
2023-03-19T00:11:51.138Z,21.20
2023-03-19T00:14:44.150Z,21.20
2023-03-19T00:17:38.231Z,21.20
2023-03-19T00:20:31.872Z,21.20
2023-03-19T00:23:24.664Z,21.20
2023-03-19T00:26:17.769Z,21.20
2023-03-19T00:29:12.735Z,21.20
2023-03-19T00:32:07.316Z,21.20
2023-03-19T00:35:01.639Z,21.20
2023-03-19T00:37:55.171Z,21.20
2023-03-19T00:40:49.030Z,21.20
2023-03-19T00:43:42.202Z,21.20
2023-03-19T00:46:37.824Z,21.20
2023-03-19T00:49:30.822Z,21.20
2023-03-19T00:52:23.960Z,21.20
2023-03-19T00:55:16.898Z,21.20
2023-03-19T00:58:10.314Z,21.20
2023-03-19T01:01:13.631Z,21.20
2023-03-19T01:04:08.422Z,21.20
2023-03-19T01:07:01.771Z,21.20
2023-03-19T01:09:55.438Z,21.20
2023-03-19T01:12:48.589Z,21.20
2023-03-19T01:15:43.645Z,21.20
2023-03-19T01:18:36.836Z,21.20
2023-03-19T01:21:31.522Z,21.20
2023-03-19T01:24:25.395Z,21.20
2023-03-19T01:27:18.802Z,21.30
2023-03-19T01:30:12.539Z,21.20
2023-03-19T01:33:06.456Z,21.20
2023-03-19T01:36:02.597Z,21.20
2023-03-19T01:38:57.470Z,21.20
2023-03-19T01:41:51.768Z,21.20
2023-03-19T01:44:45.250Z,21.20
2023-03-19T01:47:42.030Z,21.30
2023-03-19T01:50:41.937Z,21.20
2023-03-19T01:53:36.606Z,21.20
2023-03-19T01:56:33.457Z,21.20
2023-03-19T01:59:31.312Z,21.20
2023-03-19T02:02:30.438Z,21.20
2023-03-19T02:05:26.319Z,21.20
2023-03-19T02:08:23.236Z,21.20
2023-03-19T02:11:17.537Z,21.30
2023-03-19T02:14:13.280Z,21.20
2023-03-19T02:17:08.426Z,21.20
2023-03-19T02:20:08.927Z,21.30
2023-03-19T02:23:10.890Z,21.20
2023-03-19T02:26:11.223Z,21.30
2023-03-19T02:29:04.090Z,21.20
2023-03-19T02:31:56.957Z,21.20
2023-03-19T02:34:49.902Z,21.20
2023-03-19T02:37:42.989Z,21.20
2023-03-19T02:40:39.447Z,21.30
2023-03-19T02:43:36.819Z,21.30
2023-03-19T02:46:30.371Z,21.20
2023-03-19T02:49:24.942Z,21.20
2023-03-19T02:52:18.097Z,21.20
2023-03-19T02:55:11.101Z,21.20
2023-03-19T02:58:04.200Z,21.30
2023-03-19T03:00:58.660Z,21.20
2023-03-19T03:03:51.750Z,21.20
2023-03-19T03:06:45.001Z,21.30
2023-03-19T03:09:37.882Z,21.20
2023-03-19T03:12:31.578Z,21.30
2023-03-19T03:15:25.241Z,21.20
2023-03-19T03:18:19.284Z,21.20
2023-03-19T03:21:12.780Z,21.20
2023-03-19T03:24:06.831Z,21.30
2023-03-19T03:26:59.876Z,21.20
2023-03-19T03:29:52.941Z,21.30
2023-03-19T03:32:46.117Z,21.30
2023-03-19T03:35:40.578Z,21.30
2023-03-19T03:38:34.574Z,21.20
2023-03-19T03:41:27.888Z,21.20
2023-03-19T03:44:20.907Z,21.30
2023-03-19T03:47:14.583Z,21.20
2023-03-19T03:50:10.714Z,21.20
2023-03-19T03:53:05.626Z,21.20
2023-03-19T03:55:58.753Z,21.20
2023-03-19T03:58:52.349Z,21.20
2023-03-19T04:01:46.085Z,21.20
2023-03-19T04:04:38.887Z,21.20
2023-03-19T04:07:32.047Z,21.20
2023-03-19T04:10:26.651Z,21.20
2023-03-19T04:13:20.258Z,21.20
2023-03-19T04:16:13.935Z,21.20
2023-03-19T04:19:08.314Z,21.10
2023-03-19T04:22:03.425Z,21.10
2023-03-19T04:24:56.932Z,21.20
2023-03-19T04:27:51.227Z,21.20
2023-03-19T04:30:44.812Z,21.20
2023-03-19T04:33:38.599Z,21.10
2023-03-19T04:36:32.042Z,21.10
2023-03-19T04:39:25.760Z,21.10
2023-03-19T04:42:19.057Z,21.10
2023-03-19T04:45:14.022Z,21.10
2023-03-19T04:48:07.195Z,21.10
2023-03-19T04:51:00.201Z,21.10
2023-03-19T04:53:52.941Z,21.10
2023-03-19T04:56:46.058Z,21.10
2023-03-19T04:59:38.994Z,21.10
2023-03-19T05:02:33.373Z,21.10
2023-03-19T05:05:27.068Z,21.10
2023-03-19T05:08:20.287Z,21.10
2023-03-19T05:11:13.226Z,21.10
2023-03-19T05:14:06.467Z,21.10
2023-03-19T05:17:00.019Z,21.00
2023-03-19T05:19:54.138Z,21.10
2023-03-19T05:22:47.537Z,21.10
2023-03-19T05:25:41.546Z,21.00
2023-03-19T05:28:35.568Z,21.00
2023-03-19T05:31:29.396Z,21.00
2023-03-19T05:34:23.293Z,21.10
2023-03-19T05:37:18.297Z,21.00
2023-03-19T05:40:13.581Z,21.10
2023-03-19T05:43:07.469Z,21.10
2023-03-19T05:46:01.691Z,21.00
2023-03-19T05:48:54.946Z,21.00
2023-03-19T05:51:47.988Z,21.00
2023-03-19T05:54:42.486Z,21.00
2023-03-19T05:57:36.042Z,21.00
2023-03-19T06:00:29.193Z,21.00
2023-03-19T06:03:22.341Z,21.00
2023-03-19T06:06:15.292Z,21.00
2023-03-19T06:09:08.762Z,21.00
2023-03-19T06:12:03.943Z,21.00
2023-03-19T06:14:57.174Z,21.00
2023-03-19T06:17:50.408Z,21.00
2023-03-19T06:20:43.221Z,21.00
2023-03-19T06:23:36.126Z,21.00
2023-03-19T06:26:28.855Z,21.00
2023-03-19T06:29:23.351Z,21.00
2023-03-19T06:32:15.919Z,21.00
2023-03-19T06:35:10.237Z,21.00
2023-03-19T06:38:03.209Z,21.00
2023-03-19T06:40:56.523Z,21.00
2023-03-19T06:43:50.210Z,21.00
2023-03-19T06:46:44.516Z,21.00
2023-03-19T06:49:37.922Z,21.00
2023-03-19T06:52:31.324Z,21.00
2023-03-19T06:55:24.089Z,21.00
2023-03-19T06:58:17.341Z,21.00
2023-03-19T07:01:09.968Z,21.00
2023-03-19T07:04:04.198Z,21.00
2023-03-19T07:06:57.530Z,21.00
2023-03-19T07:09:51.358Z,21.00
2023-03-19T07:12:44.375Z,21.00
2023-03-19T07:15:37.229Z,21.00
2023-03-19T07:18:30.286Z,21.00
2023-03-19T07:21:24.673Z,21.00
2023-03-19T07:24:18.244Z,21.00
2023-03-19T07:27:11.191Z,21.00
2023-03-19T07:30:04.479Z,21.00
2023-03-19T07:32:57.987Z,21.00
2023-03-19T07:35:51.710Z,21.00
2023-03-19T07:38:46.293Z,21.00
2023-03-19T07:41:39.424Z,21.00
2023-03-19T07:44:32.370Z,21.00
2023-03-19T07:47:29.247Z,21.00
2023-03-19T07:50:22.622Z,21.00
2023-03-19T07:53:15.987Z,21.00
2023-03-19T07:56:11.380Z,21.00
2023-03-19T07:59:04.116Z,21.10
2023-03-19T08:01:57.430Z,21.00
2023-03-19T08:04:50.129Z,21.10
2023-03-19T08:07:43.739Z,21.10
2023-03-19T08:10:38.512Z,21.10
2023-03-19T08:13:33.777Z,21.10
2023-03-19T08:16:27.143Z,21.10
2023-03-19T08:19:20.223Z,21.10
2023-03-19T08:22:12.973Z,21.10
2023-03-19T08:25:07.905Z,21.10
2023-03-19T08:28:01.790Z,21.10
2023-03-19T08:30:56.789Z,21.10
2023-03-19T08:33:50.414Z,21.10
2023-03-19T08:36:43.541Z,21.10
2023-03-19T08:39:37.077Z,21.20
2023-03-19T08:42:30.221Z,21.10
2023-03-19T08:45:23.767Z,21.20
2023-03-19T08:48:18.528Z,21.20
2023-03-19T08:51:11.786Z,21.20
2023-03-19T08:54:05.753Z,21.20
2023-03-19T08:57:00.560Z,21.30
2023-03-19T08:59:54.701Z,21.40
2023-03-19T09:02:48.060Z,21.40
2023-03-19T09:05:42.668Z,21.50
2023-03-19T09:08:37.542Z,21.60
2023-03-19T09:11:30.932Z,21.70
2023-03-19T09:14:24.281Z,21.80
2023-03-19T09:17:18.234Z,21.90
2023-03-19T09:20:12.174Z,21.90
2023-03-19T09:23:06.568Z,21.90
2023-03-19T09:26:00.279Z,22.00
2023-03-19T09:28:53.246Z,22.10
2023-03-19T09:31:46.583Z,22.10
2023-03-19T09:34:40.747Z,22.10
2023-03-19T09:37:34.235Z,22.20
2023-03-19T09:40:31.061Z,22.20
2023-03-19T09:43:46.372Z,22.20
2023-03-19T09:46:44.539Z,22.30
2023-03-19T09:49:40.482Z,22.50
2023-03-19T09:52:41.816Z,22.40
2023-03-19T09:55:43.677Z,22.50
2023-03-19T09:58:37.997Z,22.50
2023-03-19T10:01:37.147Z,22.40
2023-03-19T10:04:43.469Z,22.40
2023-03-19T10:07:48.466Z,22.30
2023-03-19T10:10:52.417Z,22.30
2023-03-19T10:14:00.475Z,22.20
2023-03-19T10:16:55.824Z,22.20
2023-03-19T10:19:53.263Z,22.20
2023-03-19T10:22:51.284Z,22.10
2023-03-19T10:25:46.893Z,22.10
2023-03-19T10:28:43.522Z,22.10
2023-03-19T10:31:45.113Z,22.10
2023-03-19T10:34:42.177Z,22.10
2023-03-19T10:37:36.618Z,22.10
2023-03-19T10:40:40.065Z,22.00
2023-03-19T10:43:35.736Z,22.00
2023-03-19T10:46:29.792Z,22.00
2023-03-19T10:49:23.235Z,22.00
2023-03-19T10:52:21.167Z,21.90
2023-03-19T10:55:16.688Z,22.00
2023-03-19T10:58:18.281Z,22.00
2023-03-19T11:01:13.964Z,21.90
2023-03-19T11:04:14.726Z,21.90
2023-03-19T11:07:13.442Z,21.90
2023-03-19T11:10:14.123Z,21.90
2023-03-19T11:13:26.026Z,21.90
2023-03-19T11:16:21.023Z,21.90
2023-03-19T11:19:20.803Z,21.80
2023-03-19T11:22:21.067Z,21.80
2023-03-19T11:25:18.855Z,21.80
2023-03-19T11:28:15.077Z,21.80
2023-03-19T11:31:16.748Z,21.80
2023-03-19T11:34:21.255Z,21.80
2023-03-19T11:37:28.071Z,21.90
2023-03-19T11:40:31.449Z,21.80
2023-03-19T11:43:50.912Z,21.90
2023-03-19T11:46:54.405Z,21.80
2023-03-19T11:49:58.356Z,21.80
2023-03-19T11:53:02.435Z,21.80
2023-03-19T11:56:06.282Z,21.80
2023-03-19T11:59:17.380Z,21.80
2023-03-19T12:02:37.052Z,21.90
2023-03-19T12:05:46.732Z,22.00
2023-03-19T12:08:46.316Z,22.00
2023-03-19T12:11:48.695Z,22.10
2023-03-19T12:14:54.286Z,22.10
2023-03-19T12:17:59.589Z,22.10
2023-03-19T12:20:58.497Z,22.00
2023-03-19T12:24:04.988Z,22.00
2023-03-19T12:27:08.300Z,22.00
2023-03-19T12:30:12.965Z,22.00
2023-03-19T12:33:32.489Z,21.90
2023-03-19T12:36:30.359Z,21.90
2023-03-19T12:39:28.707Z,21.90
2023-03-19T12:42:24.120Z,21.90
2023-03-19T12:45:28.136Z,21.90
2023-03-19T12:48:28.548Z,21.90
2023-03-19T12:51:25.126Z,21.90
2023-03-19T12:54:24.941Z,21.90
2023-03-19T12:57:23.112Z,21.90
2023-03-19T13:00:23.026Z,21.90
2023-03-19T13:03:22.356Z,21.90
2023-03-19T13:06:21.494Z,21.80
2023-03-19T13:09:21.193Z,21.80
2023-03-19T13:12:21.554Z,21.80
2023-03-19T13:15:21.949Z,21.80
2023-03-19T13:18:23.069Z,21.80
2023-03-19T13:21:24.602Z,21.80
2023-03-19T13:24:23.102Z,21.70
2023-03-19T13:27:22.268Z,21.70
2023-03-19T13:30:22.068Z,21.70
2023-03-19T13:33:22.056Z,21.70
2023-03-19T13:36:16.199Z,21.70
2023-03-19T13:39:16.052Z,21.60
2023-03-19T13:42:45.346Z,21.60
2023-03-19T13:45:39.803Z,21.60
2023-03-19T13:48:39.119Z,21.60
2023-03-19T13:51:32.930Z,21.60
2023-03-19T13:54:38.254Z,21.60
2023-03-19T13:57:35.916Z,21.60
2023-03-19T14:00:58.606Z,21.50
2023-03-19T14:03:58.458Z,21.50
2023-03-19T14:06:54.372Z,21.50
2023-03-19T14:09:50.306Z,21.50
2023-03-19T14:12:45.058Z,21.50
2023-03-19T14:15:48.736Z,21.50
2023-03-19T14:18:44.115Z,21.50
2023-03-19T14:21:46.784Z,21.50
2023-03-19T14:24:58.804Z,21.50
2023-03-19T14:27:55.258Z,21.40
2023-03-19T14:30:50.472Z,21.50
2023-03-19T14:33:49.696Z,21.50
2023-03-19T14:36:46.782Z,21.40
2023-03-19T14:39:43.099Z,21.40
2023-03-19T14:42:41.784Z,21.50
2023-03-19T14:45:50.592Z,21.50
2023-03-19T14:49:29.625Z,21.40
2023-03-19T14:52:24.662Z,21.50
2023-03-19T14:55:18.296Z,21.50
2023-03-19T14:58:12.979Z,21.50
2023-03-19T15:01:08.226Z,21.50
2023-03-19T15:04:04.096Z,21.50
2023-03-19T15:07:00.960Z,21.50
2023-03-19T15:09:57.019Z,21.40
2023-03-19T15:13:00.060Z,21.50
2023-03-19T15:16:14.473Z,21.50
2023-03-19T15:19:10.810Z,21.40
2023-03-19T15:22:14.863Z,21.40
2023-03-19T15:25:09.813Z,21.40
2023-03-19T15:28:08.293Z,21.40
2023-03-19T15:31:20.300Z,21.40
2023-03-19T15:34:21.960Z,21.40
2023-03-19T15:37:17.102Z,21.40
2023-03-19T15:40:14.664Z,21.40
2023-03-19T15:43:12.248Z,21.40
2023-03-19T15:46:06.471Z,21.50
2023-03-19T15:49:05.582Z,21.40
2023-03-19T15:52:03.413Z,21.50
2023-03-19T15:54:58.119Z,21.40
2023-03-19T15:57:51.512Z,21.50
2023-03-19T16:00:44.873Z,21.40
2023-03-19T16:03:40.917Z,21.40
2023-03-19T16:06:38.740Z,21.40
2023-03-19T16:09:34.866Z,21.40
2023-03-19T16:12:38.293Z,21.40
2023-03-19T16:15:38.699Z,21.50
2023-03-19T16:18:41.386Z,21.40
2023-03-19T16:21:37.952Z,21.40
2023-03-19T16:24:37.422Z,21.40
2023-03-19T16:27:38.411Z,21.40
2023-03-19T16:30:31.802Z,21.40
2023-03-19T16:33:28.317Z,21.40
2023-03-19T16:36:22.548Z,21.40
2023-03-19T16:39:27.030Z,21.40
2023-03-19T16:42:40.564Z,21.40
2023-03-19T16:45:35.166Z,21.40
2023-03-19T16:48:28.753Z,21.40
2023-03-19T16:51:22.787Z,21.40
2023-03-19T16:54:15.457Z,21.30
2023-03-19T16:57:11.088Z,21.30
2023-03-19T17:00:07.507Z,21.30
2023-03-19T17:03:01.514Z,21.40
2023-03-19T17:05:54.584Z,21.30
2023-03-19T17:08:48.014Z,21.30
2023-03-19T17:11:43.391Z,21.30
2023-03-19T17:14:37.560Z,21.30
2023-03-19T17:17:31.868Z,21.30
2023-03-19T17:20:30.891Z,21.30
2023-03-19T17:23:26.878Z,21.30
2023-03-19T17:26:23.337Z,21.30
2023-03-19T17:29:16.527Z,21.30
2023-03-19T17:32:19.097Z,21.30
2023-03-19T17:35:20.506Z,21.30
2023-03-19T17:38:18.007Z,21.20
2023-03-19T17:41:15.601Z,21.30
2023-03-19T17:44:08.683Z,21.20
2023-03-19T17:47:01.583Z,21.20
2023-03-19T17:49:54.583Z,21.20
2023-03-19T17:52:49.762Z,21.20
2023-03-19T17:55:42.604Z,21.20
2023-03-19T17:58:35.909Z,21.20
2023-03-19T18:01:29.836Z,21.20
2023-03-19T18:04:23.353Z,21.20
2023-03-19T18:07:16.585Z,21.20
2023-03-19T18:10:17.056Z,21.20
2023-03-19T18:13:11.967Z,21.20
2023-03-19T18:16:05.223Z,21.20
2023-03-19T18:19:01.344Z,21.20
2023-03-19T18:21:54.818Z,21.20
2023-03-19T18:24:47.717Z,21.20
2023-03-19T18:27:42.125Z,21.20
2023-03-19T18:30:38.068Z,21.20
2023-03-19T18:33:33.729Z,21.20
2023-03-19T18:36:29.030Z,21.10
2023-03-19T18:39:23.089Z,21.20
2023-03-19T18:42:17.232Z,21.20
2023-03-19T18:45:13.831Z,21.20
2023-03-19T18:48:20.311Z,21.20
2023-03-19T18:51:13.846Z,21.10
2023-03-19T18:54:06.986Z,21.10
2023-03-19T18:57:01.536Z,21.10
2023-03-19T18:59:54.846Z,21.10
2023-03-19T19:02:50.422Z,21.10
2023-03-19T19:05:44.765Z,21.10
2023-03-19T19:08:38.029Z,21.10
2023-03-19T19:11:31.567Z,21.10
2023-03-19T19:14:26.010Z,21.10
2023-03-19T19:17:21.072Z,21.10
2023-03-19T19:20:18.911Z,21.10
2023-03-19T19:23:11.710Z,21.10
2023-03-19T19:26:06.183Z,21.10
2023-03-19T19:29:01.740Z,21.10
2023-03-19T19:31:55.289Z,21.10
2023-03-19T19:34:48.921Z,21.00
2023-03-19T19:37:43.221Z,21.10
2023-03-19T19:40:37.790Z,21.10
2023-03-19T19:43:32.252Z,21.10
2023-03-19T19:46:26.167Z,21.00
2023-03-19T19:49:21.357Z,21.10
2023-03-19T19:52:15.682Z,21.10
2023-03-19T19:55:10.787Z,21.10
2023-03-19T19:58:06.284Z,21.00
2023-03-19T20:01:04.192Z,21.00
2023-03-19T20:03:58.575Z,21.00
2023-03-19T20:06:52.130Z,21.00
2023-03-19T20:09:46.502Z,21.00
2023-03-19T20:12:44.729Z,21.00
2023-03-19T20:15:38.038Z,21.00
2023-03-19T20:18:35.656Z,21.00
2023-03-19T20:21:29.506Z,21.00
2023-03-19T20:24:22.845Z,21.00
2023-03-19T20:27:19.949Z,21.00
2023-03-19T20:30:23.700Z,21.00
2023-03-19T20:33:18.265Z,21.00
2023-03-19T20:36:15.071Z,21.00
2023-03-19T20:39:07.858Z,21.00
2023-03-19T20:42:00.947Z,21.00
2023-03-19T20:44:58.121Z,20.90
2023-03-19T20:47:54.155Z,21.00
2023-03-19T20:50:48.501Z,21.00
2023-03-19T20:53:41.880Z,21.00
2023-03-19T20:56:37.496Z,20.90
2023-03-19T20:59:30.860Z,21.00
2023-03-19T21:02:26.301Z,21.00
2023-03-19T21:05:22.461Z,21.00
2023-03-19T21:08:19.424Z,20.90
2023-03-19T21:11:17.659Z,20.90
2023-03-19T21:14:16.005Z,20.90
2023-03-19T21:17:08.974Z,20.90
2023-03-19T21:20:02.024Z,20.90
2023-03-19T21:23:00.106Z,20.90
2023-03-19T21:25:53.766Z,20.90
2023-03-19T21:28:48.552Z,20.90
2023-03-19T21:31:42.548Z,20.90
2023-03-19T21:34:35.696Z,20.90
2023-03-19T21:37:28.900Z,20.90
2023-03-19T21:40:26.688Z,20.90
2023-03-19T21:43:23.664Z,20.90
2023-03-19T21:46:24.728Z,20.90
2023-03-19T21:49:18.399Z,20.90
2023-03-19T21:52:15.599Z,20.90
2023-03-19T21:55:10.136Z,20.90
2023-03-19T21:58:04.015Z,20.90
2023-03-19T22:00:57.136Z,20.90
2023-03-19T22:03:49.960Z,20.90
2023-03-19T22:06:42.957Z,20.90
2023-03-19T22:09:35.759Z,20.90
2023-03-19T22:12:32.156Z,20.90
2023-03-19T22:15:34.936Z,20.90
2023-03-19T22:18:30.020Z,20.90
2023-03-19T22:21:24.252Z,20.90
2023-03-19T22:24:17.903Z,20.90
2023-03-19T22:27:16.381Z,20.80
2023-03-19T22:30:21.370Z,20.90
2023-03-19T22:33:18.718Z,20.80
2023-03-19T22:36:13.715Z,20.80
2023-03-19T22:39:08.547Z,20.90
2023-03-19T22:42:01.782Z,20.80
2023-03-19T22:44:55.746Z,20.80
2023-03-19T22:47:49.098Z,20.80
2023-03-19T22:50:43.772Z,20.90
2023-03-19T22:53:38.226Z,20.80
2023-03-19T22:56:31.476Z,20.80
2023-03-19T22:59:24.862Z,20.90
2023-03-19T23:02:18.155Z,20.90
2023-03-19T23:05:36.030Z,20.90
2023-03-19T23:08:30.708Z,20.90
2023-03-19T23:11:24.377Z,21.00
2023-03-19T23:14:29.015Z,21.00
2023-03-19T23:17:23.783Z,21.00
2023-03-19T23:20:19.155Z,21.00
2023-03-19T23:23:13.968Z,21.00
2023-03-19T23:26:22.713Z,21.00
2023-03-19T23:29:21.847Z,21.00
2023-03-19T23:32:17.285Z,21.00
2023-03-19T23:35:17.273Z,21.00
2023-03-19T23:38:11.363Z,21.00
2023-03-19T23:41:05.146Z,21.00
2023-03-19T23:44:03.026Z,21.00
2023-03-19T23:46:56.842Z,21.00
2023-03-19T23:49:50.207Z,21.00
2023-03-19T23:52:42.784Z,21.00
2023-03-19T23:55:36.585Z,21.00
2023-03-19T23:58:33.766Z,21.00
